createdAt,value
2022-11-14T00:01:51.015Z,19.57
2022-11-14T00:04:28.271Z,19.47
2022-11-14T00:07:00.233Z,17.73
2022-11-14T00:09:33.005Z,18.17
2022-11-14T00:12:03.779Z,19.40
2022-11-14T00:14:38.245Z,18.50
2022-11-14T00:17:11.352Z,18.47
2022-11-14T00:19:42.110Z,18.43
2022-11-14T00:22:17.576Z,18.77
2022-11-14T00:24:50.382Z,18.53
2022-11-14T00:27:20.953Z,19.83
2022-11-14T00:29:54.163Z,16.37
2022-11-14T00:32:23.941Z,16.93
2022-11-14T00:34:54.024Z,16.40
2022-11-14T00:37:27.860Z,16.53
2022-11-14T00:40:01.022Z,16.20
2022-11-14T00:42:32.969Z,17.60
2022-11-14T00:45:04.814Z,17.83
2022-11-14T00:47:36.694Z,17.37
2022-11-14T00:50:09.877Z,16.07
2022-11-14T00:52:40.553Z,17.50
2022-11-14T00:55:16.238Z,15.13
2022-11-14T00:57:47.389Z,17.47
2022-11-14T01:00:29.038Z,17.40
2022-11-14T01:03:01.277Z,16.70
2022-11-14T01:05:32.400Z,15.67
2022-11-14T01:08:05.034Z,16.70
2022-11-14T01:10:45.771Z,17.93
2022-11-14T01:13:23.266Z,16.33
2022-11-14T01:15:57.892Z,16.80
2022-11-14T01:18:34.047Z,16.90
2022-11-14T01:21:24.469Z,17.47
2022-11-14T01:24:07.144Z,17.63
2022-11-14T01:26:44.135Z,19.73
2022-11-14T01:29:23.433Z,17.73
2022-11-14T01:31:57.858Z,17.90
2022-11-14T01:34:30.704Z,16.13
2022-11-14T01:37:01.081Z,16.20
2022-11-14T01:39:30.662Z,17.97
2022-11-14T01:42:00.377Z,18.13
2022-11-14T01:44:53.175Z,16.03
2022-11-14T01:47:33.500Z,16.50
2022-11-14T01:50:15.555Z,15.40
2022-11-14T01:52:48.368Z,18.67
2022-11-14T01:55:17.349Z,16.20
2022-11-14T01:57:49.599Z,17.13
2022-11-14T02:00:27.246Z,15.50
2022-11-14T02:03:03.721Z,15.67
2022-11-14T02:05:34.036Z,16.07
2022-11-14T02:08:17.493Z,12.90
2022-11-14T02:10:50.682Z,17.53
2022-11-14T02:13:25.271Z,15.37
2022-11-14T02:15:54.631Z,15.70
2022-11-14T02:18:27.532Z,12.93
2022-11-14T02:20:58.760Z,16.50
2022-11-14T02:23:29.562Z,15.80
2022-11-14T02:25:59.365Z,15.33
2022-11-14T02:28:29.279Z,15.00
2022-11-14T02:31:00.395Z,12.90
2022-11-14T02:33:32.803Z,15.07
2022-11-14T02:36:06.133Z,16.13
2022-11-14T02:38:35.910Z,14.60
2022-11-14T02:41:12.060Z,16.63
2022-11-14T02:43:41.236Z,15.60
2022-11-14T02:46:14.076Z,14.90
2022-11-14T02:48:48.070Z,14.13
2022-11-14T02:51:22.752Z,15.97
2022-11-14T02:53:53.958Z,17.10
2022-11-14T02:56:26.713Z,15.10
2022-11-14T02:58:57.405Z,14.73
2022-11-14T03:01:30.855Z,14.93
2022-11-14T03:04:00.247Z,14.87
2022-11-14T03:06:32.796Z,14.97
2022-11-14T03:09:04.957Z,16.50
2022-11-14T03:11:35.674Z,15.30
2022-11-14T03:14:06.169Z,15.73
2022-11-14T03:16:35.300Z,14.60
2022-11-14T03:19:07.261Z,15.40
2022-11-14T03:21:38.123Z,13.80
2022-11-14T03:24:16.547Z,14.80
2022-11-14T03:26:48.657Z,15.13
2022-11-14T03:29:21.499Z,14.47
2022-11-14T03:31:53.864Z,16.73
2022-11-14T03:34:28.477Z,15.13
2022-11-14T03:37:00.545Z,14.83
2022-11-14T03:39:29.527Z,13.67
2022-11-14T03:41:59.299Z,15.80
2022-11-14T03:44:30.477Z,15.53
2022-11-14T03:47:11.777Z,16.20
2022-11-14T03:49:41.898Z,16.03
2022-11-14T03:52:13.153Z,13.40
2022-11-14T03:57:28.170Z,17.07
2022-11-14T03:59:58.322Z,14.30
2022-11-14T04:02:28.130Z,17.87
2022-11-14T04:05:04.636Z,16.80
2022-11-14T04:07:37.268Z,16.60
2022-11-14T04:10:08.624Z,16.97
2022-11-14T04:12:38.803Z,15.73
2022-11-14T04:15:08.602Z,16.57
2022-11-14T04:17:40.031Z,17.70
2022-11-14T04:20:10.385Z,16.27
2022-11-14T04:22:45.113Z,15.10
2022-11-14T04:25:14.148Z,17.70
2022-11-14T04:27:42.985Z,16.63
2022-11-14T04:30:13.357Z,17.47
2022-11-14T04:32:46.238Z,16.90
2022-11-14T04:35:16.455Z,16.60
2022-11-14T04:37:47.170Z,17.93
2022-11-14T04:40:17.226Z,16.03
2022-11-14T04:42:50.011Z,16.47
2022-11-14T04:45:19.647Z,17.87
2022-11-14T04:47:49.315Z,16.13
2022-11-14T04:50:18.740Z,15.90
2022-11-14T04:52:53.556Z,15.93
2022-11-14T04:55:22.727Z,16.53
2022-11-14T04:57:56.587Z,16.50
2022-11-14T05:00:26.685Z,17.50
2022-11-14T05:02:55.936Z,16.60
2022-11-14T05:05:24.687Z,16.73
2022-11-14T05:07:56.322Z,16.20
2022-11-14T05:10:26.110Z,16.47
2022-11-14T05:12:57.762Z,17.50
2022-11-14T05:15:26.707Z,17.87
2022-11-14T05:17:55.519Z,18.27
2022-11-14T05:20:24.306Z,15.60
2022-11-14T05:22:56.863Z,16.20
2022-11-14T05:25:25.750Z,15.33
2022-11-14T05:27:54.584Z,15.53
2022-11-14T05:30:23.342Z,17.33
2022-11-14T05:32:53.510Z,17.03
2022-11-14T05:35:22.308Z,16.80
2022-11-14T05:37:52.961Z,17.90
2022-11-14T05:40:26.635Z,18.00
2022-11-14T05:42:57.321Z,17.33
2022-11-14T05:45:26.468Z,16.83
2022-11-14T05:47:55.644Z,16.90
2022-11-14T05:50:24.402Z,20.80
2022-11-14T05:52:53.359Z,17.30
2022-11-14T05:55:25.071Z,18.23
2022-11-14T05:57:58.871Z,14.73
2022-11-14T06:00:28.329Z,17.10
2022-11-14T06:02:57.696Z,19.10
2022-11-14T06:05:26.464Z,15.87
2022-11-14T06:07:58.877Z,16.50
2022-11-14T06:10:28.218Z,17.17
2022-11-14T06:12:58.425Z,15.50
2022-11-14T06:15:27.255Z,20.20
2022-11-14T06:17:57.848Z,18.43
2022-11-14T06:20:26.692Z,18.87
2022-11-14T06:22:56.373Z,16.33
2022-11-14T06:25:25.091Z,18.87
2022-11-14T06:27:53.758Z,18.33
2022-11-14T06:30:23.911Z,18.03
2022-11-14T06:32:57.582Z,19.07
2022-11-14T06:35:26.395Z,18.23
2022-11-14T06:37:55.159Z,17.63
2022-11-14T06:40:24.035Z,19.83
2022-11-14T06:42:52.692Z,17.70
2022-11-14T06:45:22.860Z,19.37
2022-11-14T06:47:56.684Z,16.77
2022-11-14T06:50:25.495Z,17.87
2022-11-14T06:52:54.322Z,18.47
2022-11-14T06:55:25.430Z,17.47
2022-11-14T06:57:55.693Z,18.80
2022-11-14T07:00:26.077Z,19.07
2022-11-14T07:02:54.965Z,20.80
2022-11-14T07:05:23.725Z,19.40
2022-11-14T07:07:52.585Z,20.27
2022-11-14T07:10:21.390Z,19.60
2022-11-14T07:12:50.107Z,18.63
2022-11-14T07:15:18.897Z,18.20
2022-11-14T07:17:49.383Z,19.67
2022-11-14T07:20:19.629Z,21.40
2022-11-14T07:22:48.492Z,21.80
2022-11-14T07:25:17.337Z,18.97
2022-11-14T07:27:46.145Z,19.37
2022-11-14T07:30:15.670Z,18.67
2022-11-14T07:32:44.370Z,22.03
2022-11-14T07:35:14.705Z,20.57
2022-11-14T07:37:43.597Z,19.27
2022-11-14T07:40:13.445Z,20.70
2022-11-14T07:42:42.236Z,21.07
2022-11-14T07:45:12.184Z,20.27
2022-11-14T07:47:40.925Z,19.50
2022-11-14T07:50:10.526Z,20.37
2022-11-14T07:52:40.644Z,14.50
2022-11-14T07:55:09.966Z,19.93
2022-11-14T07:57:42.840Z,21.60
2022-11-14T08:00:15.400Z,22.70
2022-11-14T08:02:44.077Z,22.57
2022-11-14T08:05:12.748Z,21.53
2022-11-14T08:07:42.866Z,19.67
2022-11-14T08:10:13.646Z,21.87
2022-11-14T08:12:42.735Z,21.80
2022-11-14T08:15:13.709Z,22.50
2022-11-14T08:17:42.696Z,21.00
2022-11-14T08:20:12.361Z,20.13
2022-11-14T08:22:42.578Z,12.80
2022-11-14T08:25:11.554Z,19.27
2022-11-14T08:27:40.295Z,20.03
2022-11-14T08:30:10.323Z,18.60
2022-11-14T08:32:39.236Z,20.30
2022-11-14T08:35:09.185Z,19.17
2022-11-14T08:37:37.991Z,19.33
2022-11-14T08:40:09.067Z,16.60
2022-11-14T08:42:37.735Z,19.40
2022-11-14T08:45:07.565Z,20.70
2022-11-14T08:47:36.363Z,16.40
2022-11-14T08:50:05.918Z,16.43
2022-11-14T08:52:34.904Z,18.07
2022-11-14T08:55:04.108Z,18.20
2022-11-14T08:57:35.968Z,17.73
2022-11-14T09:00:05.454Z,17.60
2022-11-14T09:02:34.327Z,16.13
2022-11-14T09:05:03.144Z,20.93
2022-11-14T09:07:32.056Z,19.67
2022-11-14T09:10:01.173Z,22.70
2022-11-14T09:12:29.991Z,19.20
2022-11-14T09:15:00.360Z,20.20
2022-11-14T09:17:29.316Z,19.17
2022-11-14T09:19:58.814Z,16.83
2022-11-14T09:22:27.677Z,19.40
2022-11-14T09:24:56.630Z,17.93
2022-11-14T09:27:27.830Z,18.90
2022-11-14T09:29:56.520Z,17.70
2022-11-14T09:32:26.799Z,15.87
2022-11-14T09:35:00.333Z,16.70
2022-11-14T09:37:29.299Z,14.90
2022-11-14T09:39:58.282Z,15.90
2022-11-14T09:42:40.536Z,18.00
2022-11-14T09:45:14.144Z,15.77
2022-11-14T09:47:47.635Z,17.33
2022-11-14T09:50:24.471Z,15.50
2022-11-14T09:53:03.619Z,14.67
2022-11-14T09:55:37.056Z,16.53
2022-11-14T09:58:08.676Z,15.43
2022-11-14T10:00:49.452Z,14.57
2022-11-14T10:03:27.441Z,17.07
2022-11-14T10:06:14.119Z,15.07
2022-11-14T10:08:52.392Z,13.57
2022-11-14T10:11:34.978Z,16.63
2022-11-14T10:14:32.667Z,13.20
2022-11-14T10:17:13.310Z,15.60
2022-11-14T10:19:48.787Z,15.30
2022-11-14T10:22:28.641Z,14.87
2022-11-14T10:25:15.067Z,15.53
2022-11-14T10:27:56.624Z,15.20
2022-11-14T10:30:36.843Z,14.73
2022-11-14T10:33:20.311Z,17.17
2022-11-14T10:35:56.267Z,16.37
2022-11-14T10:38:32.368Z,15.70
2022-11-14T10:41:03.858Z,15.47
2022-11-14T10:43:36.778Z,14.57
2022-11-14T10:46:11.693Z,16.30
2022-11-14T10:48:47.399Z,15.93
2022-11-14T10:51:25.669Z,15.50
2022-11-14T10:53:58.035Z,15.07
2022-11-14T10:56:34.502Z,15.53
2022-11-14T10:59:03.167Z,15.50
2022-11-14T11:01:39.921Z,14.40
2022-11-14T11:04:21.748Z,16.53
2022-11-14T11:06:54.536Z,15.73
2022-11-14T11:09:45.797Z,15.57
2022-11-14T11:12:20.091Z,14.53
2022-11-14T11:14:50.790Z,14.10
2022-11-14T11:17:23.364Z,14.53
2022-11-14T11:19:52.399Z,14.10
2022-11-14T11:22:32.894Z,12.60
2022-11-14T11:25:01.792Z,15.50
2022-11-14T11:27:32.060Z,13.40
2022-11-14T11:30:18.598Z,14.47
2022-11-14T11:32:47.656Z,16.10
2022-11-14T11:35:18.760Z,15.97
2022-11-14T11:37:55.987Z,13.00
2022-11-14T11:40:28.313Z,14.23
2022-11-14T11:45:56.330Z,15.90
2022-11-14T11:48:32.307Z,16.77
2022-11-14T11:51:04.576Z,14.30
2022-11-14T11:53:39.486Z,15.67
2022-11-14T11:56:14.244Z,14.83
2022-11-14T11:58:47.225Z,16.67
2022-11-14T12:01:17.551Z,15.60
2022-11-14T12:03:49.876Z,15.70
2022-11-14T12:06:24.910Z,16.77
2022-11-14T12:09:09.525Z,15.43
2022-11-14T12:11:44.465Z,17.43
2022-11-14T12:14:43.459Z,15.90
2022-11-14T12:17:33.699Z,16.47
2022-11-14T12:20:34.571Z,13.57
2022-11-14T12:23:28.988Z,14.80
2022-11-14T12:26:12.103Z,15.30
2022-11-14T12:28:59.309Z,15.07
2022-11-14T12:31:35.397Z,16.30
2022-11-14T12:34:08.982Z,15.83
2022-11-14T12:36:39.622Z,15.40
2022-11-14T12:39:22.324Z,16.70
2022-11-14T12:42:01.599Z,16.07
2022-11-14T12:44:39.131Z,14.67
2022-11-14T12:47:17.326Z,14.27
2022-11-14T12:50:07.682Z,16.13
2022-11-14T12:52:49.717Z,15.47
2022-11-14T12:55:51.618Z,14.87
2022-11-14T12:58:31.024Z,11.20
2022-11-14T13:01:23.586Z,13.87
2022-11-14T13:04:09.643Z,15.47
2022-11-14T13:06:49.085Z,16.37
2022-11-14T13:09:42.903Z,16.83
2022-11-14T13:12:45.582Z,18.23
2022-11-14T13:15:48.808Z,14.50
2022-11-14T13:18:41.852Z,16.70
2022-11-14T13:21:44.982Z,16.60
2022-11-14T13:24:17.069Z,16.00
2022-11-14T13:26:54.168Z,16.80
2022-11-14T13:29:50.555Z,15.40
2022-11-14T13:33:05.208Z,15.57
2022-11-14T13:36:05.047Z,15.90
2022-11-14T13:39:20.770Z,14.90
2022-11-14T13:42:20.545Z,16.70
2022-11-14T13:45:26.438Z,14.63
2022-11-14T13:48:47.228Z,17.00
2022-11-14T13:54:17.510Z,15.47
2022-11-14T13:57:00.942Z,16.40
2022-11-14T13:59:56.833Z,14.50
2022-11-14T14:02:50.041Z,15.40
2022-11-14T14:05:28.933Z,15.77
2022-11-14T14:08:14.981Z,15.53
2022-11-14T14:10:56.817Z,16.10
2022-11-14T14:13:43.468Z,16.27
2022-11-14T14:16:19.402Z,17.57
2022-11-14T14:19:01.354Z,16.63
2022-11-14T14:21:39.581Z,17.90
2022-11-14T14:24:23.159Z,16.40
2022-11-14T14:27:02.391Z,16.50
2022-11-14T14:29:42.103Z,17.43
2022-11-14T14:32:14.650Z,17.60
2022-11-14T14:34:43.540Z,16.37
2022-11-14T14:37:19.783Z,18.50
2022-11-14T14:40:00.690Z,17.17
2022-11-14T14:42:35.307Z,17.10
2022-11-14T14:45:05.787Z,18.70
2022-11-14T14:47:41.275Z,17.90
2022-11-14T14:50:18.871Z,16.77
2022-11-14T14:52:48.200Z,17.73
2022-11-14T14:55:26.965Z,17.40
2022-11-14T14:57:56.005Z,17.20
2022-11-14T15:00:27.245Z,18.40
2022-11-14T15:02:58.187Z,17.43
2022-11-14T15:05:29.405Z,18.10
2022-11-14T15:08:02.057Z,17.27
2022-11-14T15:10:33.811Z,17.13
2022-11-14T15:13:02.646Z,19.27
2022-11-14T15:15:31.887Z,20.30
2022-11-14T15:18:07.172Z,20.17
2022-11-14T15:20:35.798Z,19.07
2022-11-14T15:23:06.087Z,17.87
2022-11-14T15:25:36.385Z,19.97
2022-11-14T15:28:08.530Z,19.30
2022-11-14T15:30:39.540Z,21.53
2022-11-14T15:33:28.115Z,21.40
2022-11-14T15:36:09.518Z,20.33
2022-11-14T15:38:46.416Z,19.23
2022-11-14T15:41:22.178Z,19.90
2022-11-14T15:43:53.250Z,18.97
2022-11-14T15:46:50.186Z,21.97
2022-11-14T15:49:24.612Z,21.30
2022-11-14T15:52:00.177Z,23.10
2022-11-14T15:54:32.153Z,21.03
2022-11-14T15:57:07.969Z,22.23
2022-11-14T15:59:38.467Z,21.17
2022-11-14T16:02:16.082Z,21.50
2022-11-14T16:04:47.785Z,21.00
2022-11-14T16:07:18.592Z,22.77
2022-11-14T16:09:47.544Z,22.00
2022-11-14T16:12:18.486Z,22.20
2022-11-14T16:14:47.244Z,23.47
2022-11-14T16:17:17.722Z,21.30
2022-11-14T16:19:46.937Z,23.60
2022-11-14T16:22:18.624Z,23.83
2022-11-14T16:24:47.357Z,23.57
2022-11-14T16:27:17.584Z,23.53
2022-11-14T16:29:46.511Z,25.50
2022-11-14T16:32:15.399Z,25.90
2022-11-14T16:34:46.664Z,24.97
2022-11-14T16:37:16.432Z,27.10
2022-11-14T16:39:45.303Z,32.57
2022-11-14T16:42:17.673Z,34.30
2022-11-14T16:44:50.829Z,33.13
2022-11-14T16:47:20.737Z,29.97
2022-11-14T16:49:49.665Z,33.93
2022-11-14T16:52:19.271Z,38.53
2022-11-14T16:54:48.043Z,33.40
2022-11-14T16:57:16.907Z,39.30
2022-11-14T16:59:47.092Z,34.40
2022-11-14T17:02:16.817Z,41.97
2022-11-14T17:04:46.403Z,29.37
2022-11-14T17:07:17.728Z,31.87
2022-11-14T17:09:50.381Z,29.30
2022-11-14T17:12:19.134Z,39.17
2022-11-14T17:14:49.312Z,34.50
2022-11-14T17:17:18.029Z,32.20
2022-11-14T17:19:46.773Z,32.27
2022-11-14T17:22:16.214Z,32.77
2022-11-14T17:24:45.018Z,29.57
2022-11-14T17:27:14.045Z,31.20
2022-11-14T17:29:42.732Z,30.50
2022-11-14T17:32:12.743Z,33.80
2022-11-14T17:34:41.566Z,31.50
2022-11-14T17:37:10.245Z,34.80
2022-11-14T17:39:38.966Z,33.80
2022-11-14T17:42:08.505Z,31.40
2022-11-14T17:44:37.203Z,32.77
2022-11-14T17:47:05.852Z,33.83
2022-11-14T17:49:35.939Z,35.50
2022-11-14T17:52:04.638Z,34.07
2022-11-14T17:54:37.521Z,34.27
2022-11-14T17:57:06.434Z,35.30
2022-11-14T17:59:36.572Z,35.07
2022-11-14T18:02:05.373Z,35.77
2022-11-14T18:04:35.622Z,36.63
2022-11-14T18:07:04.523Z,36.33
2022-11-14T18:09:33.229Z,37.50
2022-11-14T18:12:01.942Z,38.10
2022-11-14T18:14:30.659Z,37.97
2022-11-14T18:17:12.292Z,38.77
2022-11-14T18:19:43.455Z,39.40
2022-11-14T18:22:12.249Z,38.97
2022-11-14T18:24:46.681Z,41.43
2022-11-14T18:27:15.385Z,40.43
2022-11-14T18:29:44.166Z,41.00
2022-11-14T18:32:15.653Z,41.60
2022-11-14T18:34:45.846Z,43.70
2022-11-14T18:37:14.505Z,44.50
2022-11-14T18:39:43.257Z,46.40
2022-11-14T18:42:12.034Z,43.80
2022-11-14T18:44:40.775Z,41.80
2022-11-14T18:47:09.525Z,44.57
2022-11-14T18:49:38.200Z,39.97
2022-11-14T18:52:12.870Z,41.10
2022-11-14T18:54:45.491Z,39.80
2022-11-14T18:57:17.283Z,42.23
2022-11-14T18:59:45.980Z,41.10
2022-11-14T19:02:14.745Z,42.13
2022-11-14T19:04:43.487Z,45.13
2022-11-14T19:07:14.581Z,40.27
2022-11-14T19:09:44.414Z,43.10
2022-11-14T19:12:23.536Z,45.70
2022-11-14T19:14:53.818Z,45.57
2022-11-14T19:17:22.764Z,43.00
2022-11-14T19:19:53.957Z,44.80
2022-11-14T19:22:24.145Z,45.57
2022-11-14T19:24:52.916Z,45.87
2022-11-14T19:27:22.033Z,43.23
2022-11-14T19:29:51.262Z,41.20
2022-11-14T19:32:19.933Z,46.80
2022-11-14T19:34:48.593Z,43.27
2022-11-14T19:37:17.331Z,45.83
2022-11-14T19:39:48.202Z,47.33
2022-11-14T19:42:17.044Z,47.77
2022-11-14T19:44:47.064Z,44.67
2022-11-14T19:47:15.802Z,45.60
2022-11-14T19:49:44.606Z,50.40
2022-11-14T19:52:14.157Z,48.53
2022-11-14T19:54:42.879Z,44.03
2022-11-14T19:57:13.093Z,45.20
2022-11-14T19:59:42.572Z,43.43
2022-11-14T20:02:14.989Z,46.53
2022-11-14T20:04:43.824Z,46.07
2022-11-14T20:07:12.589Z,48.77
2022-11-14T20:09:41.474Z,50.60
2022-11-14T20:12:10.240Z,49.77
2022-11-14T20:14:40.401Z,51.07
2022-11-14T20:17:09.157Z,48.50
2022-11-14T20:19:37.980Z,44.60
2022-11-14T20:22:07.610Z,44.67
2022-11-14T20:24:36.301Z,47.40
2022-11-14T20:27:05.570Z,47.47
2022-11-14T20:29:34.390Z,47.10
2022-11-14T20:32:04.857Z,48.67
2022-11-14T20:34:35.267Z,46.70
2022-11-14T20:37:11.157Z,50.00
2022-11-14T20:39:40.615Z,44.17
2022-11-14T20:42:09.410Z,45.67
2022-11-14T20:44:38.144Z,45.20
2022-11-14T20:47:10.983Z,46.90
2022-11-14T20:49:40.270Z,48.20
2022-11-14T20:52:09.000Z,46.13
2022-11-14T20:54:37.858Z,47.30
2022-11-14T20:57:06.656Z,48.67
2022-11-14T20:59:35.430Z,43.87
2022-11-14T21:02:04.436Z,49.70
2022-11-14T21:04:34.618Z,49.97
2022-11-14T21:07:03.428Z,49.63
2022-11-14T21:09:32.200Z,48.47
2022-11-14T21:12:00.889Z,50.63
2022-11-14T21:14:29.560Z,51.97
2022-11-14T21:16:58.293Z,50.30
2022-11-14T21:19:29.122Z,49.93
2022-11-14T21:21:59.366Z,51.70
2022-11-14T21:24:28.017Z,50.50
2022-11-14T21:26:56.723Z,51.40
2022-11-14T21:29:27.398Z,49.97
2022-11-14T21:31:56.146Z,51.03
2022-11-14T21:34:24.971Z,52.60
2022-11-14T21:36:53.744Z,51.47
2022-11-14T21:39:24.094Z,57.77
2022-11-14T21:41:53.881Z,53.00
2022-11-14T21:44:22.673Z,56.43
2022-11-14T21:46:51.997Z,53.77
2022-11-14T21:49:20.897Z,55.23
2022-11-14T21:51:49.851Z,54.47
2022-11-14T21:54:18.669Z,56.03
2022-11-14T21:56:48.763Z,55.77
2022-11-14T21:59:21.404Z,53.77
2022-11-14T22:02:09.717Z,52.50
2022-11-14T22:04:39.040Z,55.67
2022-11-14T22:07:09.575Z,57.93
2022-11-14T22:09:43.987Z,58.37
2022-11-14T22:12:15.315Z,58.60
2022-11-14T22:14:44.003Z,56.50
2022-11-14T22:17:12.778Z,56.83
2022-11-14T22:19:41.532Z,51.70
2022-11-14T22:22:10.283Z,59.47
2022-11-14T22:24:39.047Z,52.87
2022-11-14T22:27:07.767Z,56.90
2022-11-14T22:29:38.029Z,53.93
2022-11-14T22:32:06.988Z,55.63
2022-11-14T22:34:35.681Z,52.10
2022-11-14T22:37:04.489Z,53.77
2022-11-14T22:39:33.252Z,54.37
2022-11-14T22:42:01.986Z,51.77
2022-11-14T22:44:30.657Z,51.10
2022-11-14T22:47:00.767Z,50.20
2022-11-14T22:49:29.426Z,50.10
2022-11-14T22:51:58.315Z,51.20
2022-11-14T22:54:27.090Z,50.20
2022-11-14T22:56:55.796Z,52.23
2022-11-14T22:59:24.562Z,51.90
2022-11-14T23:01:53.290Z,49.20
2022-11-14T23:04:23.499Z,49.40
2022-11-14T23:06:52.243Z,50.57
2022-11-14T23:09:21.081Z,51.27
2022-11-14T23:11:49.686Z,50.37
2022-11-14T23:14:18.554Z,51.60
2022-11-14T23:16:47.246Z,51.67
2022-11-14T23:19:15.910Z,53.97
2022-11-14T23:21:45.969Z,50.77
2022-11-14T23:24:15.996Z,53.47
2022-11-14T23:26:45.008Z,52.50
2022-11-14T23:29:15.201Z,56.40
2022-11-14T23:31:44.010Z,53.47
2022-11-14T23:34:12.713Z,51.23
2022-11-14T23:36:41.420Z,47.77
2022-11-14T23:39:11.549Z,52.83
2022-11-14T23:41:40.265Z,52.10
2022-11-14T23:44:08.919Z,51.77
2022-11-14T23:46:37.609Z,51.30
2022-11-14T23:49:06.307Z,49.13
2022-11-14T23:51:34.988Z,50.87
2022-11-14T23:54:03.645Z,49.17
2022-11-14T23:56:33.738Z,50.47
2022-11-14T23:59:02.434Z,50.00
